Historyczne dane pomiarowe

Dodano dane terminowe – wersja testowa.

Dane z okresu 1951-2019

Wersja bazy: 1.34 [2019-03-16, lista zmian], aktualizacja planowana na 2019-04-15

Dane meteo z obszaru Polski uzyskane na podstawie danych udostępnionych przez Instytut Meteorologii i Gospodarki Wodnej – Państwowy Instytut Badawczy.

 

Wybierz Datę:    

       

TemperaturaWilgotnośćWiatrCiśnienieOpadyŚniegCzas trwania zjawisk
 Stacja t tx tn tng RH VA  wxwx mslp ppp RRR   cm mm wxwxwxwxwxwxwx
1999-08-14 16.0 20.1 11.9 11.1 82.3- 4.3 1.3---- 0.0------------
1999-08-13 15.0 19.0 12.5 11.2 88.8- 7.0 2.7---- 25.7------------
1999-08-12 16.8 22.6 11.7 10.2 82.3- 6.3 1.3---- 5.2------------
1999-08-11 17.3 21.2 12.9 10.7 94.5- 7.0 0.3---- 13.9------------
1999-08-10 18.1 25.0 14.2 11.9 91.3- 6.0 1.0---- 9.5------------
1999-08-09 21.5 28.6 17.2 16.3 84.8- 4.3 2.7---- 1.0------------
1999-08-08 19.2 23.5 16.2 14.0 87.0- 6.0 1.0---- 5.0------------
1999-08-07 20.3 27.5 13.7 10.7 70.0- 4.3 1.0---- 7.0------------
1999-08-06 20.8 30.0 13.6 10.2 62.8- 3.0 0.7---- 0.0------------
1999-08-05 18.6 27.0 9.9 8.2 74.0- 4.0 0.3---- 0.0------------
1999-08-04 18.6 27.4 9.9 4.5 74.5- 1.7 0.3---- 0.0------------
1999-08-03 19.3 26.5 11.9 9.7 70.0- 1.3 1.3---- 0.0------------
1999-08-02 19.6 26.5 11.8 8.2 59.8- 0.0 1.3---- 0.0------------
1999-08-01 19.7 25.5 12.8 8.2 61.5- 0.7 1.7---- 0.0------------
1999-07-31 20.1 26.3 12.3 9.2 68.8- 1.0 2.0---- 0.0------------
1999-07-30 18.7 24.7 10.3 7.7 67.0- 0.0 1.7---- 0.0------------
1999-07-29 18.5 24.3 10.7 6.7 78.8- 1.0 1.7---- 0.0------------
1999-07-28 18.4 22.6 12.9 8.7 64.8- 1.3 1.7---- 0.0------------
1999-07-27 16.3 21.3 9.5 5.7 69.8- 3.7 1.7---- 0.0------------
1999-07-26 17.1 20.9 14.6 11.7 89.5- 6.0 0.7---- 1.5------------
1999-07-25 19.8 24.5 16.5 16.3 83.0- 6.3 0.7---- 1.1------------
1999-07-24 18.0 23.6 11.3 9.7 75.3- 6.7 1.0---- 0.0------------
1999-07-23 17.6 22.9 11.4 11.3 76.3- 3.0 1.7---- 0.0------------
1999-07-22 18.2 22.5 14.7 13.3 67.8- 5.3 1.3---- 0.0------------
1999-07-21 21.5 27.6 17.0 14.8 88.3- 4.7 2.0---- 20.0------------
1999-07-20 22.4 31.0 13.3 8.9 65.3- 2.7 1.7---- 6.0------------
1999-07-19 19.5 24.5 12.9 10.7 78.3- 3.0 0.3---- 0.0------------
1999-07-18 19.4 27.0 12.9 10.7 76.8- 3.0 1.3---- 0.0------------
1999-07-17 16.9 23.4 10.8 7.7 80.8- 4.7 1.3---- 4.0------------
1999-07-16 17.0 22.0 10.8 8.0 69.0- 3.3 0.7---- 0.0------------
1999-07-15 19.3 26.8 15.8 15.4 81.0- 7.0 1.0---- 0.0------------
1999-07-14 22.6 26.0 18.1 13.3 57.3- 5.3 2.7---- 8.0------------
1999-07-13 24.1 30.0 18.6 14.0 59.5- 3.3 2.0---- 0.0------------
1999-07-12 23.4 29.0 15.7 10.2 53.8- 2.3 0.7---- 0.0------------
1999-07-11 21.9 28.6 13.3 12.8 61.3- 0.0 0.7---- 0.0------------
1999-07-10 19.7 25.0 13.5 9.7 62.8- 0.0 3.0---- 0.0------------
1999-07-09 17.8 21.0 14.9 12.8 73.0- 0.7 3.7---- 0.0------------
1999-07-08 18.2 21.5 14.5 13.2 82.8- 6.3 1.3---- 2.8------------
1999-07-07 18.0 21.0 16.2- 88.8- 7.3 1.0---- 0.0------------
1999-07-06 22.9 28.4 18.7- 86.5- 2.0 1.7---- 12.8------------
1999-07-05 24.3 32.8 14.7- 74.8- 2.0 1.7---- 0.0------------
1999-07-04 20.1 29.5 11.3- 83.8- 5.0 1.3---- 0.0------------
1999-07-03 17.9 24.0 11.3- 87.8- 5.0 0.7---- 0.0------------
1999-07-02 17.4 22.0 13.8 13.8 87.5- 4.7 0.3---- 0.0------------
1999-07-01 19.2 26.4 13.7 10.1 87.0- 5.7 0.7---- 8.3------------
1999-06-30 20.1 25.5 12.9 8.7 70.5- 5.0 1.3---- 0.0------------
1999-06-29 19.3 26.0 14.8 13.3 74.0- 4.7 2.0---- 0.0------------
1999-06-28 22.9 29.0 16.0 13.8 61.0- 1.7 2.0---- 9.6------------
1999-06-27 20.8 28.5 12.8 7.2 60.5- 4.3 2.3---- 0.0------------
1999-06-26 14.0 20.0 7.7 5.6 77.0- 4.3 1.7---- 0.0------------
1999-06-25 13.7 17.6 8.8 6.7 68.3- 4.7 1.7---- 0.6------------
1999-06-24 13.9 18.5 9.7 8.2 81.5- 5.7 1.3---- 0.0------------
1999-06-23 12.5 14.4 10.8 9.7 94.5- 7.7 3.7---- 1.9------------
1999-06-22 13.9 16.0 12.3 12.2 85.8- 7.7 2.3---- 8.4------------
1999-06-21 17.3 22.0 12.8 13.3 77.0- 6.3 2.3---- 0.0------------
1999-06-20 19.6 24.5 15.7 15.3 72.5- 6.0 1.7---- 0.0------------
1999-06-19 19.9 25.0 15.2 11.7 86.5- 4.3 2.7---- 1.0------------
1999-06-18 17.1 21.5 11.3 8.2 77.3- 4.7 2.3---- 0.0------------
1999-06-17 17.1 22.0 13.3 9.7 83.3- 5.0 1.7---- 0.0------------
1999-06-16 17.0 21.0 13.4 12.9 80.8- 4.0 1.3---- 0.0------------
2028.2 ms

 

Źródłem pochodzenia danych jest Instytut Meteorologii i Gospodarki Wodnej – Państwowy Instytut Badawczy. Dane Instytutu Meteorologii i Gospodarki Wodnej – Państwowego Instytutu Badawczego zostały przetworzone.

Dane źródłowe można odnaleźć na stronie https://dane.imgw.pl